sensor_id;sensor_type;location;lat;lon;timestamp;temperature;humidity
52849;DHT22;38714;53.180;5.812;2023-11-21T00:00:33;10.10;99.90
52849;DHT22;38714;53.180;5.812;2023-11-21T00:02:59;10.10;99.90
52849;DHT22;38714;53.180;5.812;2023-11-21T00:05:24;10.10;99.90
52849;DHT22;38714;53.180;5.812;2023-11-21T00:07:50;10.20;99.90
52849;DHT22;38714;53.180;5.812;2023-11-21T00:10:16;10.10;99.90
52849;DHT22;38714;53.180;5.812;2023-11-21T00:12:42;10.10;99.90
52849;DHT22;38714;53.180;5.812;2023-11-21T00:15:09;10.20;99.90
52849;DHT22;38714;53.180;5.812;2023-11-21T00:17:36;10.20;99.90
52849;DHT22;38714;53.180;5.812;2023-11-21T00:20:03;10.20;99.90
52849;DHT22;38714;53.180;5.812;2023-11-21T00:22:34;10.20;99.90
52849;DHT22;38714;53.180;5.812;2023-11-21T00:25:01;10.20;99.90
52849;DHT22;38714;53.180;5.812;2023-11-21T00:27:26;10.20;99.90
52849;DHT22;38714;53.180;5.812;2023-11-21T00:29:52;10.20;99.90
52849;DHT22;38714;53.180;5.812;2023-11-21T00:32:19;10.20;99.90
52849;DHT22;38714;53.180;5.812;2023-11-21T00:34:44;10.20;99.90
52849;DHT22;38714;53.180;5.812;2023-11-21T00:37:10;10.20;99.90
52849;DHT22;38714;53.180;5.812;2023-11-21T00:39:35;10.20;99.90
52849;DHT22;38714;53.180;5.812;2023-11-21T00:42:01;10.20;99.90
52849;DHT22;38714;53.180;5.812;2023-11-21T00:44:26;10.20;99.90
52849;DHT22;38714;53.180;5.812;2023-11-21T00:46:52;10.20;99.90
52849;DHT22;38714;53.180;5.812;2023-11-21T00:49:18;10.20;99.90
52849;DHT22;38714;53.180;5.812;2023-11-21T00:51:43;10.20;99.90
52849;DHT22;38714;53.180;5.812;2023-11-21T00:54:09;10.20;99.90
52849;DHT22;38714;53.180;5.812;2023-11-21T00:56:34;10.20;99.90
52849;DHT22;38714;53.180;5.812;2023-11-21T00:59:00;10.20;99.90
52849;DHT22;38714;53.180;5.812;2023-11-21T01:01:25;10.20;99.90
52849;DHT22;38714;53.180;5.812;2023-11-21T01:03:51;10.20;99.90
52849;DHT22;38714;53.180;5.812;2023-11-21T01:06:17;10.20;99.90
52849;DHT22;38714;53.180;5.812;2023-11-21T01:08:46;10.20;99.90
52849;DHT22;38714;53.180;5.812;2023-11-21T01:11:12;10.20;99.90
52849;DHT22;38714;53.180;5.812;2023-11-21T01:13:38;10.10;99.90
52849;DHT22;38714;53.180;5.812;2023-11-21T01:16:05;10.20;99.90
52849;DHT22;38714;53.180;5.812;2023-11-21T01:18:32;10.20;99.90
52849;DHT22;38714;53.180;5.812;2023-11-21T01:20:57;10.20;99.90
52849;DHT22;38714;53.180;5.812;2023-11-21T01:23:23;10.20;99.90
52849;DHT22;38714;53.180;5.812;2023-11-21T01:25:49;10.20;99.90
52849;DHT22;38714;53.180;5.812;2023-11-21T01:28:14;10.20;99.90
52849;DHT22;38714;53.180;5.812;2023-11-21T01:30:40;10.20;99.90
52849;DHT22;38714;53.180;5.812;2023-11-21T01:33:05;10.20;99.90
52849;DHT22;38714;53.180;5.812;2023-11-21T01:35:31;10.20;99.90
52849;DHT22;38714;53.180;5.812;2023-11-21T01:37:57;10.20;99.90
52849;DHT22;38714;53.180;5.812;2023-11-21T01:40:22;10.30;99.90
52849;DHT22;38714;53.180;5.812;2023-11-21T01:42:49;10.30;99.90
52849;DHT22;38714;53.180;5.812;2023-11-21T01:45:15;10.30;99.90
52849;DHT22;38714;53.180;5.812;2023-11-21T01:47:42;10.30;99.90
52849;DHT22;38714;53.180;5.812;2023-11-21T01:50:08;10.30;99.90
52849;DHT22;38714;53.180;5.812;2023-11-21T01:52:35;10.30;99.90
52849;DHT22;38714;53.180;5.812;2023-11-21T01:55:01;10.30;99.90
52849;DHT22;38714;53.180;5.812;2023-11-21T01:57:27;10.30;99.90
52849;DHT22;38714;53.180;5.812;2023-11-21T01:59:54;10.40;99.90
52849;DHT22;38714;53.180;5.812;2023-11-21T02:02:20;10.40;99.90
52849;DHT22;38714;53.180;5.812;2023-11-21T02:04:45;10.40;99.90
52849;DHT22;38714;53.180;5.812;2023-11-21T02:07:11;10.40;99.90
52849;DHT22;38714;53.180;5.812;2023-11-21T02:09:37;10.50;99.90
52849;DHT22;38714;53.180;5.812;2023-11-21T02:12:08;10.40;99.90
52849;DHT22;38714;53.180;5.812;2023-11-21T02:14:35;10.40;99.90
52849;DHT22;38714;53.180;5.812;2023-11-21T02:17:02;10.50;99.90
52849;DHT22;38714;53.180;5.812;2023-11-21T02:19:29;10.50;99.90
52849;DHT22;38714;53.180;5.812;2023-11-21T02:21:57;10.50;99.90
52849;DHT22;38714;53.180;5.812;2023-11-21T02:24:28;10.50;99.90
52849;DHT22;38714;53.180;5.812;2023-11-21T02:26:54;10.50;99.90
52849;DHT22;38714;53.180;5.812;2023-11-21T02:29:20;10.50;99.90
52849;DHT22;38714;53.180;5.812;2023-11-21T02:31:54;10.50;99.90
52849;DHT22;38714;53.180;5.812;2023-11-21T02:34:20;10.50;99.90
52849;DHT22;38714;53.180;5.812;2023-11-21T02:36:47;10.50;99.90
52849;DHT22;38714;53.180;5.812;2023-11-21T02:39:15;10.50;99.90
52849;DHT22;38714;53.180;5.812;2023-11-21T02:41:42;10.50;99.90
52849;DHT22;38714;53.180;5.812;2023-11-21T02:44:08;10.50;99.90
52849;DHT22;38714;53.180;5.812;2023-11-21T02:46:35;10.50;99.90
52849;DHT22;38714;53.180;5.812;2023-11-21T02:49:04;10.60;99.90
52849;DHT22;38714;53.180;5.812;2023-11-21T02:51:32;10.60;99.90
52849;DHT22;38714;53.180;5.812;2023-11-21T02:53:57;10.60;99.90
52849;DHT22;38714;53.180;5.812;2023-11-21T02:56:28;10.60;99.90
52849;DHT22;38714;53.180;5.812;2023-11-21T02:58:57;10.60;99.90
52849;DHT22;38714;53.180;5.812;2023-11-21T03:01:23;10.60;99.90
52849;DHT22;38714;53.180;5.812;2023-11-21T03:03:51;10.60;99.90
52849;DHT22;38714;53.180;5.812;2023-11-21T03:06:18;10.60;99.90
52849;DHT22;38714;53.180;5.812;2023-11-21T03:08:44;10.60;99.90
52849;DHT22;38714;53.180;5.812;2023-11-21T03:11:09;10.60;99.90
52849;DHT22;38714;53.180;5.812;2023-11-21T03:13:35;10.60;99.90
52849;DHT22;38714;53.180;5.812;2023-11-21T03:16:00;10.60;99.90
52849;DHT22;38714;53.180;5.812;2023-11-21T03:18:26;10.60;99.90
52849;DHT22;38714;53.180;5.812;2023-11-21T03:20:53;10.60;99.90
52849;DHT22;38714;53.180;5.812;2023-11-21T03:23:18;10.60;99.90
52849;DHT22;38714;53.180;5.812;2023-11-21T03:25:44;10.60;99.90
52849;DHT22;38714;53.180;5.812;2023-11-21T03:28:10;10.60;99.90
52849;DHT22;38714;53.180;5.812;2023-11-21T03:30:36;10.50;99.90
52849;DHT22;38714;53.180;5.812;2023-11-21T03:33:01;10.60;99.90
52849;DHT22;38714;53.180;5.812;2023-11-21T03:35:27;10.50;99.90
52849;DHT22;38714;53.180;5.812;2023-11-21T03:37:53;10.50;99.90
52849;DHT22;38714;53.180;5.812;2023-11-21T03:40:19;10.50;99.90
52849;DHT22;38714;53.180;5.812;2023-11-21T03:42:45;10.50;99.90
52849;DHT22;38714;53.180;5.812;2023-11-21T03:45:11;10.50;99.90
52849;DHT22;38714;53.180;5.812;2023-11-21T03:47:37;10.50;99.90
52849;DHT22;38714;53.180;5.812;2023-11-21T03:50:03;10.50;99.90
52849;DHT22;38714;53.180;5.812;2023-11-21T03:52:30;10.50;99.90
52849;DHT22;38714;53.180;5.812;2023-11-21T03:54:55;10.50;99.90
52849;DHT22;38714;53.180;5.812;2023-11-21T03:57:21;10.50;99.90
52849;DHT22;38714;53.180;5.812;2023-11-21T03:59:47;10.50;99.90
52849;DHT22;38714;53.180;5.812;2023-11-21T04:02:12;10.50;99.90
52849;DHT22;38714;53.180;5.812;2023-11-21T04:04:38;10.40;99.90
52849;DHT22;38714;53.180;5.812;2023-11-21T04:07:05;10.50;99.90
52849;DHT22;38714;53.180;5.812;2023-11-21T04:09:30;10.50;99.90
52849;DHT22;38714;53.180;5.812;2023-11-21T04:11:56;10.40;99.90
52849;DHT22;38714;53.180;5.812;2023-11-21T04:14:22;10.50;99.90
52849;DHT22;38714;53.180;5.812;2023-11-21T04:16:47;10.40;99.90
52849;DHT22;38714;53.180;5.812;2023-11-21T04:19:14;10.40;99.90
52849;DHT22;38714;53.180;5.812;2023-11-21T04:21:40;10.40;99.90
52849;DHT22;38714;53.180;5.812;2023-11-21T04:24:06;10.40;99.90
52849;DHT22;38714;53.180;5.812;2023-11-21T04:26:32;10.40;99.90
52849;DHT22;38714;53.180;5.812;2023-11-21T04:28:58;10.40;99.90
52849;DHT22;38714;53.180;5.812;2023-11-21T04:31:23;10.40;99.90
52849;DHT22;38714;53.180;5.812;2023-11-21T04:33:49;10.40;99.90
52849;DHT22;38714;53.180;5.812;2023-11-21T04:36:14;10.40;99.90
52849;DHT22;38714;53.180;5.812;2023-11-21T04:38:40;10.40;99.90
52849;DHT22;38714;53.180;5.812;2023-11-21T04:41:06;10.40;99.90
52849;DHT22;38714;53.180;5.812;2023-11-21T04:43:32;10.40;99.90
52849;DHT22;38714;53.180;5.812;2023-11-21T04:45:58;10.40;99.90
52849;DHT22;38714;53.180;5.812;2023-11-21T04:48:23;10.40;99.90
52849;DHT22;38714;53.180;5.812;2023-11-21T04:50:49;10.30;99.90
52849;DHT22;38714;53.180;5.812;2023-11-21T04:53:14;10.40;99.90
52849;DHT22;38714;53.180;5.812;2023-11-21T04:55:40;10.30;99.90
52849;DHT22;38714;53.180;5.812;2023-11-21T04:58:07;10.30;99.90
52849;DHT22;38714;53.180;5.812;2023-11-21T05:00:33;10.30;99.90
52849;DHT22;38714;53.180;5.812;2023-11-21T05:02:59;10.30;99.90
52849;DHT22;38714;53.180;5.812;2023-11-21T05:05:26;10.30;99.90
52849;DHT22;38714;53.180;5.812;2023-11-21T05:07:52;10.30;99.90
52849;DHT22;38714;53.180;5.812;2023-11-21T05:10:19;10.30;99.90
52849;DHT22;38714;53.180;5.812;2023-11-21T05:12:44;10.30;99.90
52849;DHT22;38714;53.180;5.812;2023-11-21T05:15:14;10.30;99.90
52849;DHT22;38714;53.180;5.812;2023-11-21T05:17:40;10.30;99.90
52849;DHT22;38714;53.180;5.812;2023-11-21T05:20:13;10.30;99.90
52849;DHT22;38714;53.180;5.812;2023-11-21T05:22:40;10.20;99.90
52849;DHT22;38714;53.180;5.812;2023-11-21T05:25:07;10.20;99.90
52849;DHT22;38714;53.180;5.812;2023-11-21T05:27:34;10.20;99.90
52849;DHT22;38714;53.180;5.812;2023-11-21T05:30:04;10.10;99.90
52849;DHT22;38714;53.180;5.812;2023-11-21T05:32:39;10.10;99.90
52849;DHT22;38714;53.180;5.812;2023-11-21T05:35:05;10.10;99.90
52849;DHT22;38714;53.180;5.812;2023-11-21T05:37:35;10.10;99.90
52849;DHT22;38714;53.180;5.812;2023-11-21T05:40:01;10.00;99.90
52849;DHT22;38714;53.180;5.812;2023-11-21T05:42:31;10.00;99.90
52849;DHT22;38714;53.180;5.812;2023-11-21T05:44:57;10.00;99.90
52849;DHT22;38714;53.180;5.812;2023-11-21T05:47:24;10.00;99.90
52849;DHT22;38714;53.180;5.812;2023-11-21T05:49:51;9.90;99.90
52849;DHT22;38714;53.180;5.812;2023-11-21T05:52:17;9.90;99.90
52849;DHT22;38714;53.180;5.812;2023-11-21T05:54:43;9.90;99.90
52849;DHT22;38714;53.180;5.812;2023-11-21T05:57:09;9.90;99.90
52849;DHT22;38714;53.180;5.812;2023-11-21T05:59:34;9.90;99.90
52849;DHT22;38714;53.180;5.812;2023-11-21T06:02:00;9.90;99.90
52849;DHT22;38714;53.180;5.812;2023-11-21T06:04:25;9.90;99.90
52849;DHT22;38714;53.180;5.812;2023-11-21T06:06:52;9.90;99.90
52849;DHT22;38714;53.180;5.812;2023-11-21T06:09:18;9.80;99.90
52849;DHT22;38714;53.180;5.812;2023-11-21T06:11:44;9.90;99.90
52849;DHT22;38714;53.180;5.812;2023-11-21T06:14:09;9.80;99.90
52849;DHT22;38714;53.180;5.812;2023-11-21T06:16:36;9.90;99.90
52849;DHT22;38714;53.180;5.812;2023-11-21T06:19:02;9.80;99.90
52849;DHT22;38714;53.180;5.812;2023-11-21T06:21:27;9.80;99.90
52849;DHT22;38714;53.180;5.812;2023-11-21T06:23:53;9.80;99.90
52849;DHT22;38714;53.180;5.812;2023-11-21T06:26:18;9.80;99.90
52849;DHT22;38714;53.180;5.812;2023-11-21T06:28:44;9.80;99.90
52849;DHT22;38714;53.180;5.812;2023-11-21T06:31:10;9.80;99.90
52849;DHT22;38714;53.180;5.812;2023-11-21T06:33:36;9.80;99.90
52849;DHT22;38714;53.180;5.812;2023-11-21T06:36:01;9.80;99.90
52849;DHT22;38714;53.180;5.812;2023-11-21T06:38:31;9.80;99.90
52849;DHT22;38714;53.180;5.812;2023-11-21T06:40:57;9.80;99.90
52849;DHT22;38714;53.180;5.812;2023-11-21T06:43:23;9.80;99.90
52849;DHT22;38714;53.180;5.812;2023-11-21T06:45:49;9.80;99.90
52849;DHT22;38714;53.180;5.812;2023-11-21T06:48:15;9.80;99.90
52849;DHT22;38714;53.180;5.812;2023-11-21T06:50:40;9.80;99.90
52849;DHT22;38714;53.180;5.812;2023-11-21T06:53:07;9.80;99.90
52849;DHT22;38714;53.180;5.812;2023-11-21T06:55:33;9.80;99.90
52849;DHT22;38714;53.180;5.812;2023-11-21T06:57:59;9.70;99.90
52849;DHT22;38714;53.180;5.812;2023-11-21T07:00:25;9.70;99.90
52849;DHT22;38714;53.180;5.812;2023-11-21T07:02:53;9.80;99.90
52849;DHT22;38714;53.180;5.812;2023-11-21T07:05:20;9.80;99.90
52849;DHT22;38714;53.180;5.812;2023-11-21T07:07:46;9.70;99.90
52849;DHT22;38714;53.180;5.812;2023-11-21T07:10:13;9.70;99.90
52849;DHT22;38714;53.180;5.812;2023-11-21T07:12:40;9.70;99.90
52849;DHT22;38714;53.180;5.812;2023-11-21T07:15:06;9.70;99.90
52849;DHT22;38714;53.180;5.812;2023-11-21T07:17:35;9.70;99.90
52849;DHT22;38714;53.180;5.812;2023-11-21T07:20:03;9.60;99.90
52849;DHT22;38714;53.180;5.812;2023-11-21T07:22:29;9.70;99.90
52849;DHT22;38714;53.180;5.812;2023-11-21T07:24:55;9.60;99.90
52849;DHT22;38714;53.180;5.812;2023-11-21T07:27:22;9.60;99.90
52849;DHT22;38714;53.180;5.812;2023-11-21T07:29:47;9.60;99.90
52849;DHT22;38714;53.180;5.812;2023-11-21T07:32:14;9.60;99.90
52849;DHT22;38714;53.180;5.812;2023-11-21T07:34:40;9.60;99.90
52849;DHT22;38714;53.180;5.812;2023-11-21T07:37:06;9.60;99.90
52849;DHT22;38714;53.180;5.812;2023-11-21T07:39:32;9.60;99.90
52849;DHT22;38714;53.180;5.812;2023-11-21T07:41:57;9.50;99.90
52849;DHT22;38714;53.180;5.812;2023-11-21T07:44:23;9.50;99.90
52849;DHT22;38714;53.180;5.812;2023-11-21T07:46:49;9.50;99.90
52849;DHT22;38714;53.180;5.812;2023-11-21T07:49:17;9.50;99.90
52849;DHT22;38714;53.180;5.812;2023-11-21T07:51:45;9.40;99.90
52849;DHT22;38714;53.180;5.812;2023-11-21T07:54:11;9.50;99.90
52849;DHT22;38714;53.180;5.812;2023-11-21T07:56:37;9.50;99.90
52849;DHT22;38714;53.180;5.812;2023-11-21T07:59:02;9.40;99.90
52849;DHT22;38714;53.180;5.812;2023-11-21T08:01:28;9.50;99.90
52849;DHT22;38714;53.180;5.812;2023-11-21T08:03:54;9.40;99.90
52849;DHT22;38714;53.180;5.812;2023-11-21T08:06:25;9.40;99.90
52849;DHT22;38714;53.180;5.812;2023-11-21T08:08:51;9.40;99.90
52849;DHT22;38714;53.180;5.812;2023-11-21T08:11:17;9.40;99.90
52849;DHT22;38714;53.180;5.812;2023-11-21T08:13:42;9.40;99.90
52849;DHT22;38714;53.180;5.812;2023-11-21T08:16:08;9.40;99.90
52849;DHT22;38714;53.180;5.812;2023-11-21T08:18:34;9.40;99.90
52849;DHT22;38714;53.180;5.812;2023-11-21T08:21:00;9.40;99.90
52849;DHT22;38714;53.180;5.812;2023-11-21T08:23:26;9.40;99.90
52849;DHT22;38714;53.180;5.812;2023-11-21T08:25:52;9.40;99.90
52849;DHT22;38714;53.180;5.812;2023-11-21T08:28:18;9.40;99.90
52849;DHT22;38714;53.180;5.812;2023-11-21T08:30:44;9.40;99.90
52849;DHT22;38714;53.180;5.812;2023-11-21T08:33:10;9.30;99.90
52849;DHT22;38714;53.180;5.812;2023-11-21T08:35:37;9.40;99.90
52849;DHT22;38714;53.180;5.812;2023-11-21T08:38:03;9.40;99.90
52849;DHT22;38714;53.180;5.812;2023-11-21T08:40:29;9.40;99.90
52849;DHT22;38714;53.180;5.812;2023-11-21T08:42:55;9.40;99.90
52849;DHT22;38714;53.180;5.812;2023-11-21T08:45:21;9.40;99.90
52849;DHT22;38714;53.180;5.812;2023-11-21T08:47:48;9.30;99.90
52849;DHT22;38714;53.180;5.812;2023-11-21T08:50:14;9.40;99.90
52849;DHT22;38714;53.180;5.812;2023-11-21T08:52:40;9.30;99.90
52849;DHT22;38714;53.180;5.812;2023-11-21T08:55:06;9.40;99.90
52849;DHT22;38714;53.180;5.812;2023-11-21T08:57:38;9.30;99.90
52849;DHT22;38714;53.180;5.812;2023-11-21T09:00:06;9.40;99.90
52849;DHT22;38714;53.180;5.812;2023-11-21T09:02:37;9.40;99.90
52849;DHT22;38714;53.180;5.812;2023-11-21T09:05:07;9.40;99.90
52849;DHT22;38714;53.180;5.812;2023-11-21T09:07:34;9.30;99.90
52849;DHT22;38714;53.180;5.812;2023-11-21T09:10:01;9.40;99.90
52849;DHT22;38714;53.180;5.812;2023-11-21T09:12:26;9.30;99.90
52849;DHT22;38714;53.180;5.812;2023-11-21T09:14:52;9.30;99.90
52849;DHT22;38714;53.180;5.812;2023-11-21T09:17:18;9.30;99.90
52849;DHT22;38714;53.180;5.812;2023-11-21T09:19:44;9.40;99.90
52849;DHT22;38714;53.180;5.812;2023-11-21T09:22:12;9.40;99.90
52849;DHT22;38714;53.180;5.812;2023-11-21T09:24:38;9.40;99.90
52849;DHT22;38714;53.180;5.812;2023-11-21T09:27:04;9.40;99.90
52849;DHT22;38714;53.180;5.812;2023-11-21T09:29:30;9.40;99.90
52849;DHT22;38714;53.180;5.812;2023-11-21T09:31:57;9.40;99.90
52849;DHT22;38714;53.180;5.812;2023-11-21T09:34:25;9.40;99.90
52849;DHT22;38714;53.180;5.812;2023-11-21T09:36:51;9.40;99.90
52849;DHT22;38714;53.180;5.812;2023-11-21T09:39:17;9.50;99.90
52849;DHT22;38714;53.180;5.812;2023-11-21T09:41:59;9.50;99.90
52849;DHT22;38714;53.180;5.812;2023-11-21T09:47:17;9.60;99.90
52849;DHT22;38714;53.180;5.812;2023-11-21T09:49:47;9.60;99.90
52849;DHT22;38714;53.180;5.812;2023-11-21T09:52:34;9.60;99.90
52849;DHT22;38714;53.180;5.812;2023-11-21T09:55:03;9.70;99.90
52849;DHT22;38714;53.180;5.812;2023-11-21T09:57:31;9.70;99.90
52849;DHT22;38714;53.180;5.812;2023-11-21T09:59:57;9.70;99.90
52849;DHT22;38714;53.180;5.812;2023-11-21T10:02:28;9.70;99.90
52849;DHT22;38714;53.180;5.812;2023-11-21T10:04:59;9.70;99.90
52849;DHT22;38714;53.180;5.812;2023-11-21T10:07:26;9.70;99.90
52849;DHT22;38714;53.180;5.812;2023-11-21T10:09:53;9.70;99.90
52849;DHT22;38714;53.180;5.812;2023-11-21T10:12:19;9.70;99.90
52849;DHT22;38714;53.180;5.812;2023-11-21T10:14:48;9.60;99.90
52849;DHT22;38714;53.180;5.812;2023-11-21T10:17:15;9.60;99.90
52849;DHT22;38714;53.180;5.812;2023-11-21T10:19:48;9.60;99.90
52849;DHT22;38714;53.180;5.812;2023-11-21T10:22:15;9.60;99.90
52849;DHT22;38714;53.180;5.812;2023-11-21T10:24:41;9.60;99.90
52849;DHT22;38714;53.180;5.812;2023-11-21T10:27:08;9.60;99.90
52849;DHT22;38714;53.180;5.812;2023-11-21T10:29:34;9.60;99.90
52849;DHT22;38714;53.180;5.812;2023-11-21T10:32:02;9.50;99.90
52849;DHT22;38714;53.180;5.812;2023-11-21T10:34:29;9.50;99.90
52849;DHT22;38714;53.180;5.812;2023-11-21T10:36:55;9.50;99.90
52849;DHT22;38714;53.180;5.812;2023-11-21T10:39:23;9.50;99.90
52849;DHT22;38714;53.180;5.812;2023-11-21T10:41:53;9.50;99.90
52849;DHT22;38714;53.180;5.812;2023-11-21T10:44:20;9.50;99.90
52849;DHT22;38714;53.180;5.812;2023-11-21T10:46:50;9.50;99.90
52849;DHT22;38714;53.180;5.812;2023-11-21T10:49:20;9.50;99.90
52849;DHT22;38714;53.180;5.812;2023-11-21T10:51:46;9.50;99.90
52849;DHT22;38714;53.180;5.812;2023-11-21T10:54:17;9.50;99.90
52849;DHT22;38714;53.180;5.812;2023-11-21T10:56:44;9.50;99.90
52849;DHT22;38714;53.180;5.812;2023-11-21T10:59:10;9.50;99.90
52849;DHT22;38714;53.180;5.812;2023-11-21T11:01:42;9.40;99.90
52849;DHT22;38714;53.180;5.812;2023-11-21T11:04:09;9.40;99.90
52849;DHT22;38714;53.180;5.812;2023-11-21T11:06:42;9.40;99.90
52849;DHT22;38714;53.180;5.812;2023-11-21T11:09:10;9.30;99.90
52849;DHT22;38714;53.180;5.812;2023-11-21T11:11:42;9.30;99.90
52849;DHT22;38714;53.180;5.812;2023-11-21T11:14:13;9.30;99.90
52849;DHT22;38714;53.180;5.812;2023-11-21T11:16:39;9.30;99.90
52849;DHT22;38714;53.180;5.812;2023-11-21T11:19:09;9.40;99.90
52849;DHT22;38714;53.180;5.812;2023-11-21T11:22:14;9.40;99.90
52849;DHT22;38714;53.180;5.812;2023-11-21T11:36:09;9.50;99.90
52849;DHT22;38714;53.180;5.812;2023-11-21T11:38:36;9.50;99.90
52849;DHT22;38714;53.180;5.812;2023-11-21T11:41:03;9.50;99.90
52849;DHT22;38714;53.180;5.812;2023-11-21T11:43:29;9.50;99.90
52849;DHT22;38714;53.180;5.812;2023-11-21T11:45:59;9.50;99.90
52849;DHT22;38714;53.180;5.812;2023-11-21T11:48:25;9.50;99.90
52849;DHT22;38714;53.180;5.812;2023-11-21T11:53:45;9.40;99.90
52849;DHT22;38714;53.180;5.812;2023-11-21T11:56:31;9.40;99.90
52849;DHT22;38714;53.180;5.812;2023-11-21T11:59:01;9.40;99.90
52849;DHT22;38714;53.180;5.812;2023-11-21T12:01:28;9.40;99.90
52849;DHT22;38714;53.180;5.812;2023-11-21T12:07:00;9.40;99.90
52849;DHT22;38714;53.180;5.812;2023-11-21T12:09:29;9.40;99.90
52849;DHT22;38714;53.180;5.812;2023-11-21T12:11:55;9.30;99.90
52849;DHT22;38714;53.180;5.812;2023-11-21T12:14:25;9.40;99.90
52849;DHT22;38714;53.180;5.812;2023-11-21T12:16:51;9.30;99.90
52849;DHT22;38714;53.180;5.812;2023-11-21T12:19:17;9.30;99.90
52849;DHT22;38714;53.180;5.812;2023-11-21T12:21:43;9.30;99.90
52849;DHT22;38714;53.180;5.812;2023-11-21T12:24:14;9.30;99.90
52849;DHT22;38714;53.180;5.812;2023-11-21T12:26:40;9.30;99.90
52849;DHT22;38714;53.180;5.812;2023-11-21T12:29:06;9.30;99.90
52849;DHT22;38714;53.180;5.812;2023-11-21T12:31:33;9.30;99.90
52849;DHT22;38714;53.180;5.812;2023-11-21T12:34:00;9.30;99.90
52849;DHT22;38714;53.180;5.812;2023-11-21T12:36:25;9.30;99.90
52849;DHT22;38714;53.180;5.812;2023-11-21T12:38:51;9.30;99.90
52849;DHT22;38714;53.180;5.812;2023-11-21T12:41:17;9.30;99.90
52849;DHT22;38714;53.180;5.812;2023-11-21T12:43:43;9.20;99.90
52849;DHT22;38714;53.180;5.812;2023-11-21T12:46:10;9.20;99.90
52849;DHT22;38714;53.180;5.812;2023-11-21T12:48:40;9.20;99.90
52849;DHT22;38714;53.180;5.812;2023-11-21T12:51:10;9.30;99.90
52849;DHT22;38714;53.180;5.812;2023-11-21T12:53:37;9.20;99.90
52849;DHT22;38714;53.180;5.812;2023-11-21T12:56:07;9.20;99.90
52849;DHT22;38714;53.180;5.812;2023-11-21T12:58:35;9.20;99.90
52849;DHT22;38714;53.180;5.812;2023-11-21T13:01:01;9.20;99.90
52849;DHT22;38714;53.180;5.812;2023-11-21T13:03:30;9.20;99.90
52849;DHT22;38714;53.180;5.812;2023-11-21T13:05:56;9.20;99.90
52849;DHT22;38714;53.180;5.812;2023-11-21T13:08:25;9.20;99.90
52849;DHT22;38714;53.180;5.812;2023-11-21T13:10:53;9.20;99.90
52849;DHT22;38714;53.180;5.812;2023-11-21T13:13:20;9.20;99.90
52849;DHT22;38714;53.180;5.812;2023-11-21T13:15:57;9.20;99.90
52849;DHT22;38714;53.180;5.812;2023-11-21T13:18:26;9.20;99.90
52849;DHT22;38714;53.180;5.812;2023-11-21T13:20:53;9.20;99.90
52849;DHT22;38714;53.180;5.812;2023-11-21T13:23:20;9.20;99.90
52849;DHT22;38714;53.180;5.812;2023-11-21T13:25:46;9.20;99.90
52849;DHT22;38714;53.180;5.812;2023-11-21T13:28:13;9.20;99.90
52849;DHT22;38714;53.180;5.812;2023-11-21T13:30:41;9.20;99.90
52849;DHT22;38714;53.180;5.812;2023-11-21T13:33:08;9.20;99.90
52849;DHT22;38714;53.180;5.812;2023-11-21T13:35:37;9.20;99.90
52849;DHT22;38714;53.180;5.812;2023-11-21T13:38:08;9.20;99.90
52849;DHT22;38714;53.180;5.812;2023-11-21T13:40:34;9.20;99.90
52849;DHT22;38714;53.180;5.812;2023-11-21T13:43:08;9.20;99.90
52849;DHT22;38714;53.180;5.812;2023-11-21T13:45:38;9.20;99.90
52849;DHT22;38714;53.180;5.812;2023-11-21T13:48:05;9.20;99.90
52849;DHT22;38714;53.180;5.812;2023-11-21T13:50:38;9.20;99.90
52849;DHT22;38714;53.180;5.812;2023-11-21T13:53:04;9.30;99.90
52849;DHT22;38714;53.180;5.812;2023-11-21T13:55:53;9.30;99.90
52849;DHT22;38714;53.180;5.812;2023-11-21T13:58:20;9.20;99.90
52849;DHT22;38714;53.180;5.812;2023-11-21T14:00:50;9.20;99.90
52849;DHT22;38714;53.180;5.812;2023-11-21T14:03:23;9.20;99.90
52849;DHT22;38714;53.180;5.812;2023-11-21T14:05:49;9.20;99.90
52849;DHT22;38714;53.180;5.812;2023-11-21T14:08:21;9.10;99.90
52849;DHT22;38714;53.180;5.812;2023-11-21T14:10:48;9.10;99.90
52849;DHT22;38714;53.180;5.812;2023-11-21T14:13:21;9.10;99.90
52849;DHT22;38714;53.180;5.812;2023-11-21T14:15:49;9.10;99.90
52849;DHT22;38714;53.180;5.812;2023-11-21T14:18:17;9.10;99.90
52849;DHT22;38714;53.180;5.812;2023-11-21T14:20:51;9.00;99.90
52849;DHT22;38714;53.180;5.812;2023-11-21T14:23:18;9.00;99.90
52849;DHT22;38714;53.180;5.812;2023-11-21T14:25:43;9.00;99.90
52849;DHT22;38714;53.180;5.812;2023-11-21T14:28:09;9.00;99.90
52849;DHT22;38714;53.180;5.812;2023-11-21T14:30:37;9.00;99.90
52849;DHT22;38714;53.180;5.812;2023-11-21T14:33:05;9.00;99.90
52849;DHT22;38714;53.180;5.812;2023-11-21T14:35:31;8.90;99.90
52849;DHT22;38714;53.180;5.812;2023-11-21T14:37:58;8.90;99.90
52849;DHT22;38714;53.180;5.812;2023-11-21T14:40:25;8.90;99.90
52849;DHT22;38714;53.180;5.812;2023-11-21T14:42:51;8.80;99.90
52849;DHT22;38714;53.180;5.812;2023-11-21T14:45:21;8.70;99.90
52849;DHT22;38714;53.180;5.812;2023-11-21T14:47:48;8.70;99.90
52849;DHT22;38714;53.180;5.812;2023-11-21T14:50:43;8.70;99.90
52849;DHT22;38714;53.180;5.812;2023-11-21T14:53:34;8.70;99.90
52849;DHT22;38714;53.180;5.812;2023-11-21T14:56:19;8.60;99.90
52849;DHT22;38714;53.180;5.812;2023-11-21T14:58:56;8.60;99.90
52849;DHT22;38714;53.180;5.812;2023-11-21T15:01:23;8.60;99.90
52849;DHT22;38714;53.180;5.812;2023-11-21T15:04:08;8.60;99.90
52849;DHT22;38714;53.180;5.812;2023-11-21T15:06:40;8.50;99.90
52849;DHT22;38714;53.180;5.812;2023-11-21T15:09:08;8.50;99.90
52849;DHT22;38714;53.180;5.812;2023-11-21T15:11:34;8.50;99.90
52849;DHT22;38714;53.180;5.812;2023-11-21T15:14:00;8.50;99.90
52849;DHT22;38714;53.180;5.812;2023-11-21T15:16:26;8.50;99.90
52849;DHT22;38714;53.180;5.812;2023-11-21T15:18:54;8.50;99.90
52849;DHT22;38714;53.180;5.812;2023-11-21T15:21:21;8.50;99.90
52849;DHT22;38714;53.180;5.812;2023-11-21T15:23:48;8.50;99.90
52849;DHT22;38714;53.180;5.812;2023-11-21T15:26:13;8.50;99.90
52849;DHT22;38714;53.180;5.812;2023-11-21T15:28:39;8.50;99.90
52849;DHT22;38714;53.180;5.812;2023-11-21T15:31:05;8.50;99.90
52849;DHT22;38714;53.180;5.812;2023-11-21T15:33:31;8.40;99.90
52849;DHT22;38714;53.180;5.812;2023-11-21T15:35:56;8.40;99.90
52849;DHT22;38714;53.180;5.812;2023-11-21T15:38:23;8.40;99.90
52849;DHT22;38714;53.180;5.812;2023-11-21T15:40:49;8.40;99.90
52849;DHT22;38714;53.180;5.812;2023-11-21T15:43:15;8.30;99.90
52849;DHT22;38714;53.180;5.812;2023-11-21T15:45:41;8.30;99.90
52849;DHT22;38714;53.180;5.812;2023-11-21T15:48:07;8.20;99.90
52849;DHT22;38714;53.180;5.812;2023-11-21T15:50:32;8.20;99.90
52849;DHT22;38714;53.180;5.812;2023-11-21T15:52:58;8.20;99.90
52849;DHT22;38714;53.180;5.812;2023-11-21T15:55:24;8.10;99.90
52849;DHT22;38714;53.180;5.812;2023-11-21T15:57:50;8.10;99.90
52849;DHT22;38714;53.180;5.812;2023-11-21T16:00:16;8.10;99.90